sensor_id;sensor_type;location;lat;lon;timestamp;temperature;humidity
74368;DHT22;64991;41.090;-8.118;2023-11-22T00:04:41;18.60;81.10
74368;DHT22;64991;41.090;-8.118;2023-11-22T00:09:45;18.60;80.60
74368;DHT22;64991;41.090;-8.118;2023-11-22T00:14:49;18.70;80.60
74368;DHT22;64991;41.090;-8.118;2023-11-22T00:19:54;18.70;80.60
74368;DHT22;64991;41.090;-8.118;2023-11-22T00:24:58;18.60;80.70
74368;DHT22;64991;41.090;-8.118;2023-11-22T00:30:03;18.60;80.60
74368;DHT22;64991;41.090;-8.118;2023-11-22T00:35:09;18.70;80.50
74368;DHT22;64991;41.090;-8.118;2023-11-22T00:40:14;18.60;80.70
74368;DHT22;64991;41.090;-8.118;2023-11-22T00:45:18;18.60;80.50
74368;DHT22;64991;41.090;-8.118;2023-11-22T00:50:23;18.60;80.60
74368;DHT22;64991;41.090;-8.118;2023-11-22T00:55:27;18.70;80.50
74368;DHT22;64991;41.090;-8.118;2023-11-22T01:00:31;18.60;80.40
74368;DHT22;64991;41.090;-8.118;2023-11-22T01:05:36;18.50;80.30
74368;DHT22;64991;41.090;-8.118;2023-11-22T01:10:39;18.60;80.50
74368;DHT22;64991;41.090;-8.118;2023-11-22T01:15:43;18.60;80.50
74368;DHT22;64991;41.090;-8.118;2023-11-22T01:20:50;18.50;80.50
74368;DHT22;64991;41.090;-8.118;2023-11-22T01:25:53;18.60;80.40
74368;DHT22;64991;41.090;-8.118;2023-11-22T01:30:57;18.60;80.30
74368;DHT22;64991;41.090;-8.118;2023-11-22T01:36:02;18.60;80.30
74368;DHT22;64991;41.090;-8.118;2023-11-22T01:41:06;18.50;80.40
74368;DHT22;64991;41.090;-8.118;2023-11-22T01:46:10;18.60;80.30
74368;DHT22;64991;41.090;-8.118;2023-11-22T01:51:21;18.60;80.10
74368;DHT22;64991;41.090;-8.118;2023-11-22T01:56:26;18.50;80.30
74368;DHT22;64991;41.090;-8.118;2023-11-22T02:01:30;18.60;80.30
74368;DHT22;64991;41.090;-8.118;2023-11-22T02:06:35;18.60;80.10
74368;DHT22;64991;41.090;-8.118;2023-11-22T02:11:39;18.50;80.00
74368;DHT22;64991;41.090;-8.118;2023-11-22T02:16:44;18.60;80.00
74368;DHT22;64991;41.090;-8.118;2023-11-22T02:21:49;18.60;80.20
74368;DHT22;64991;41.090;-8.118;2023-11-22T02:26:54;18.60;80.10
74368;DHT22;64991;41.090;-8.118;2023-11-22T02:31:58;18.50;80.00
74368;DHT22;64991;41.090;-8.118;2023-11-22T02:37:01;18.50;80.10
74368;DHT22;64991;41.090;-8.118;2023-11-22T02:42:07;18.60;80.00
74368;DHT22;64991;41.090;-8.118;2023-11-22T02:47:11;18.60;80.20
74368;DHT22;64991;41.090;-8.118;2023-11-22T02:52:14;18.60;80.00
74368;DHT22;64991;41.090;-8.118;2023-11-22T02:57:19;18.50;80.00
74368;DHT22;64991;41.090;-8.118;2023-11-22T03:02:23;18.60;80.10
74368;DHT22;64991;41.090;-8.118;2023-11-22T03:07:28;18.50;79.90
74368;DHT22;64991;41.090;-8.118;2023-11-22T03:12:33;18.40;79.90
74368;DHT22;64991;41.090;-8.118;2023-11-22T03:17:37;18.60;79.90
74368;DHT22;64991;41.090;-8.118;2023-11-22T03:22:41;18.50;79.80
74368;DHT22;64991;41.090;-8.118;2023-11-22T03:27:47;18.50;79.60
74368;DHT22;64991;41.090;-8.118;2023-11-22T03:32:51;18.50;79.90
74368;DHT22;64991;41.090;-8.118;2023-11-22T03:37:56;18.50;79.80
74368;DHT22;64991;41.090;-8.118;2023-11-22T03:43:01;18.50;79.70
74368;DHT22;64991;41.090;-8.118;2023-11-22T03:48:05;18.40;79.90
74368;DHT22;64991;41.090;-8.118;2023-11-22T03:53:09;18.50;80.00
74368;DHT22;64991;41.090;-8.118;2023-11-22T03:58:13;18.40;79.90
74368;DHT22;64991;41.090;-8.118;2023-11-22T04:03:17;18.50;79.90
74368;DHT22;64991;41.090;-8.118;2023-11-22T04:08:21;18.40;79.80
74368;DHT22;64991;41.090;-8.118;2023-11-22T04:13:26;18.40;79.80
74368;DHT22;64991;41.090;-8.118;2023-11-22T04:18:29;18.40;79.50
74368;DHT22;64991;41.090;-8.118;2023-11-22T04:23:34;18.30;79.60
74368;DHT22;64991;41.090;-8.118;2023-11-22T04:28:39;18.60;79.60
74368;DHT22;64991;41.090;-8.118;2023-11-22T04:33:43;18.40;79.70
74368;DHT22;64991;41.090;-8.118;2023-11-22T04:38:47;18.30;79.60
74368;DHT22;64991;41.090;-8.118;2023-11-22T04:43:52;18.50;79.40
74368;DHT22;64991;41.090;-8.118;2023-11-22T04:48:56;18.40;79.60
74368;DHT22;64991;41.090;-8.118;2023-11-22T04:53:59;18.40;79.60
74368;DHT22;64991;41.090;-8.118;2023-11-22T04:59:04;18.40;79.60
74368;DHT22;64991;41.090;-8.118;2023-11-22T05:04:08;18.40;79.30
74368;DHT22;64991;41.090;-8.118;2023-11-22T05:09:12;18.30;79.30
74368;DHT22;64991;41.090;-8.118;2023-11-22T05:14:17;18.30;79.20
74368;DHT22;64991;41.090;-8.118;2023-11-22T05:19:21;18.30;79.20
74368;DHT22;64991;41.090;-8.118;2023-11-22T05:24:25;18.30;79.10
74368;DHT22;64991;41.090;-8.118;2023-11-22T05:29:30;18.30;79.30
74368;DHT22;64991;41.090;-8.118;2023-11-22T05:34:44;18.40;79.20
74368;DHT22;64991;41.090;-8.118;2023-11-22T05:39:47;18.20;79.40
74368;DHT22;64991;41.090;-8.118;2023-11-22T05:44:52;18.40;79.40
74368;DHT22;64991;41.090;-8.118;2023-11-22T05:49:56;18.30;79.30
74368;DHT22;64991;41.090;-8.118;2023-11-22T05:55:00;18.30;79.20
74368;DHT22;64991;41.090;-8.118;2023-11-22T06:00:08;18.30;79.20
74368;DHT22;64991;41.090;-8.118;2023-11-22T06:05:12;18.30;79.20
74368;DHT22;64991;41.090;-8.118;2023-11-22T06:10:15;18.30;79.20
74368;DHT22;64991;41.090;-8.118;2023-11-22T06:15:20;18.20;79.20
74368;DHT22;64991;41.090;-8.118;2023-11-22T06:20:25;18.30;79.10
74368;DHT22;64991;41.090;-8.118;2023-11-22T06:25:29;18.30;79.10
74368;DHT22;64991;41.090;-8.118;2023-11-22T06:30:34;18.10;79.60
74368;DHT22;64991;41.090;-8.118;2023-11-22T06:35:38;18.20;78.90
74368;DHT22;64991;41.090;-8.118;2023-11-22T06:40:42;18.20;79.10
74368;DHT22;64991;41.090;-8.118;2023-11-22T06:45:47;18.10;79.30
74368;DHT22;64991;41.090;-8.118;2023-11-22T06:50:50;18.10;79.10
74368;DHT22;64991;41.090;-8.118;2023-11-22T06:55:54;18.10;79.00
74368;DHT22;64991;41.090;-8.118;2023-11-22T07:00:59;18.10;79.00
74368;DHT22;64991;41.090;-8.118;2023-11-22T07:06:04;18.00;78.80
74368;DHT22;64991;41.090;-8.118;2023-11-22T07:11:07;18.00;78.90
74368;DHT22;64991;41.090;-8.118;2023-11-22T07:16:13;18.00;78.90
74368;DHT22;64991;41.090;-8.118;2023-11-22T07:21:18;18.00;78.70
74368;DHT22;64991;41.090;-8.118;2023-11-22T07:26:22;18.00;78.70
74368;DHT22;64991;41.090;-8.118;2023-11-22T07:31:30;18.00;78.80
74368;DHT22;64991;41.090;-8.118;2023-11-22T07:36:34;18.00;78.70
74368;DHT22;64991;41.090;-8.118;2023-11-22T07:41:40;18.10;78.50
74368;DHT22;64991;41.090;-8.118;2023-11-22T07:46:45;18.00;78.40
74368;DHT22;64991;41.090;-8.118;2023-11-22T07:51:48;18.00;78.60
74368;DHT22;64991;41.090;-8.118;2023-11-22T07:56:53;18.10;78.70
74368;DHT22;64991;41.090;-8.118;2023-11-22T08:01:59;18.10;78.70
74368;DHT22;64991;41.090;-8.118;2023-11-22T08:07:03;18.00;78.90
74368;DHT22;64991;41.090;-8.118;2023-11-22T08:12:07;18.00;78.70
74368;DHT22;64991;41.090;-8.118;2023-11-22T08:17:14;18.10;78.90
74368;DHT22;64991;41.090;-8.118;2023-11-22T08:22:19;18.00;79.10
74368;DHT22;64991;41.090;-8.118;2023-11-22T08:27:23;18.00;78.90
74368;DHT22;64991;41.090;-8.118;2023-11-22T08:32:28;18.00;79.10
74368;DHT22;64991;41.090;-8.118;2023-11-22T08:37:33;18.00;79.20
74368;DHT22;64991;41.090;-8.118;2023-11-22T08:42:38;17.90;79.30
74368;DHT22;64991;41.090;-8.118;2023-11-22T08:47:44;18.00;79.20
74368;DHT22;64991;41.090;-8.118;2023-11-22T08:52:48;18.00;79.30
74368;DHT22;64991;41.090;-8.118;2023-11-22T08:57:54;18.00;79.00
74368;DHT22;64991;41.090;-8.118;2023-11-22T09:02:59;18.00;79.30
74368;DHT22;64991;41.090;-8.118;2023-11-22T09:08:03;18.00;79.40
74368;DHT22;64991;41.090;-8.118;2023-11-22T09:13:19;18.10;79.30
74368;DHT22;64991;41.090;-8.118;2023-11-22T09:18:25;18.00;79.20
74368;DHT22;64991;41.090;-8.118;2023-11-22T09:23:29;18.00;79.10
74368;DHT22;64991;41.090;-8.118;2023-11-22T09:28:33;18.00;79.20
74368;DHT22;64991;41.090;-8.118;2023-11-22T09:33:38;17.90;79.20
74368;DHT22;64991;41.090;-8.118;2023-11-22T09:38:41;18.00;79.10
74368;DHT22;64991;41.090;-8.118;2023-11-22T09:43:45;18.00;79.00
74368;DHT22;64991;41.090;-8.118;2023-11-22T09:48:53;18.00;79.30
74368;DHT22;64991;41.090;-8.118;2023-11-22T09:53:59;18.00;79.00
74368;DHT22;64991;41.090;-8.118;2023-11-22T09:59:06;18.00;79.20
74368;DHT22;64991;41.090;-8.118;2023-11-22T10:04:11;18.00;79.10
74368;DHT22;64991;41.090;-8.118;2023-11-22T10:09:15;18.10;78.80
74368;DHT22;64991;41.090;-8.118;2023-11-22T10:14:22;18.00;79.20
74368;DHT22;64991;41.090;-8.118;2023-11-22T10:19:28;18.00;79.20
74368;DHT22;64991;41.090;-8.118;2023-11-22T10:24:32;18.10;79.20
74368;DHT22;64991;41.090;-8.118;2023-11-22T10:29:36;18.00;79.50
74368;DHT22;64991;41.090;-8.118;2023-11-22T10:34:41;18.10;79.30
74368;DHT22;64991;41.090;-8.118;2023-11-22T10:39:46;18.00;79.50
74368;DHT22;64991;41.090;-8.118;2023-11-22T10:44:54;18.10;79.50
74368;DHT22;64991;41.090;-8.118;2023-11-22T10:50:00;18.00;79.30
74368;DHT22;64991;41.090;-8.118;2023-11-22T10:55:04;18.10;79.40
74368;DHT22;64991;41.090;-8.118;2023-11-22T11:00:09;18.00;79.40
74368;DHT22;64991;41.090;-8.118;2023-11-22T11:05:20;18.00;79.60
74368;DHT22;64991;41.090;-8.118;2023-11-22T11:10:30;18.00;79.70
74368;DHT22;64991;41.090;-8.118;2023-11-22T11:15:34;18.10;79.80
74368;DHT22;64991;41.090;-8.118;2023-11-22T11:20:46;18.10;80.00
74368;DHT22;64991;41.090;-8.118;2023-11-22T11:25:54;18.00;79.90
74368;DHT22;64991;41.090;-8.118;2023-11-22T11:30:58;18.00;80.00
74368;DHT22;64991;41.090;-8.118;2023-11-22T11:36:03;18.00;80.10
74368;DHT22;64991;41.090;-8.118;2023-11-22T11:41:08;18.00;80.10
74368;DHT22;64991;41.090;-8.118;2023-11-22T11:46:13;18.10;80.00
74368;DHT22;64991;41.090;-8.118;2023-11-22T11:51:19;18.00;80.20
74368;DHT22;64991;41.090;-8.118;2023-11-22T11:56:23;18.10;80.20
74368;DHT22;64991;41.090;-8.118;2023-11-22T12:01:28;18.10;80.40
74368;DHT22;64991;41.090;-8.118;2023-11-22T12:06:36;18.10;80.30
74368;DHT22;64991;41.090;-8.118;2023-11-22T12:11:41;18.10;80.40
74368;DHT22;64991;41.090;-8.118;2023-11-22T12:16:50;18.00;80.50
74368;DHT22;64991;41.090;-8.118;2023-11-22T12:21:56;18.20;80.30
74368;DHT22;64991;41.090;-8.118;2023-11-22T12:26:59;18.10;80.50
74368;DHT22;64991;41.090;-8.118;2023-11-22T12:32:03;18.10;80.80
74368;DHT22;64991;41.090;-8.118;2023-11-22T12:37:08;18.20;80.00
74368;DHT22;64991;41.090;-8.118;2023-11-22T12:42:12;18.20;80.10
74368;DHT22;64991;41.090;-8.118;2023-11-22T12:47:18;18.20;80.30
74368;DHT22;64991;41.090;-8.118;2023-11-22T12:52:36;18.20;80.30
74368;DHT22;64991;41.090;-8.118;2023-11-22T12:57:41;18.10;81.00
74368;DHT22;64991;41.090;-8.118;2023-11-22T13:02:46;18.10;80.70
74368;DHT22;64991;41.090;-8.118;2023-11-22T13:08:05;18.20;80.00
74368;DHT22;64991;41.090;-8.118;2023-11-22T13:13:08;18.20;80.30
74368;DHT22;64991;41.090;-8.118;2023-11-22T13:18:12;18.10;81.00
74368;DHT22;64991;41.090;-8.118;2023-11-22T13:23:17;18.20;80.40
74368;DHT22;64991;41.090;-8.118;2023-11-22T13:28:20;18.30;80.50
74368;DHT22;64991;41.090;-8.118;2023-11-22T13:33:27;18.20;80.50
74368;DHT22;64991;41.090;-8.118;2023-11-22T13:38:32;18.20;80.70
74368;DHT22;64991;41.090;-8.118;2023-11-22T13:43:36;18.30;80.70
74368;DHT22;64991;41.090;-8.118;2023-11-22T13:48:39;18.20;80.80
74368;DHT22;64991;41.090;-8.118;2023-11-22T13:53:44;18.20;80.90
74368;DHT22;64991;41.090;-8.118;2023-11-22T13:58:53;18.20;80.90
74368;DHT22;64991;41.090;-8.118;2023-11-22T14:03:56;18.20;80.70
74368;DHT22;64991;41.090;-8.118;2023-11-22T14:09:02;18.20;80.90
74368;DHT22;64991;41.090;-8.118;2023-11-22T14:14:05;18.20;81.30
74368;DHT22;64991;41.090;-8.118;2023-11-22T14:19:13;18.20;81.10
74368;DHT22;64991;41.090;-8.118;2023-11-22T14:24:18;18.30;81.20
74368;DHT22;64991;41.090;-8.118;2023-11-22T14:29:21;18.20;81.00
74368;DHT22;64991;41.090;-8.118;2023-11-22T14:34:25;18.20;81.10
74368;DHT22;64991;41.090;-8.118;2023-11-22T14:39:29;18.30;81.30
74368;DHT22;64991;41.090;-8.118;2023-11-22T14:44:35;18.20;81.10
74368;DHT22;64991;41.090;-8.118;2023-11-22T14:49:38;18.20;81.50
74368;DHT22;64991;41.090;-8.118;2023-11-22T14:54:49;18.20;81.30
74368;DHT22;64991;41.090;-8.118;2023-11-22T14:59:54;18.20;81.50
74368;DHT22;64991;41.090;-8.118;2023-11-22T15:04:58;18.20;81.30
74368;DHT22;64991;41.090;-8.118;2023-11-22T15:10:04;18.20;81.40
74368;DHT22;64991;41.090;-8.118;2023-11-22T15:15:08;18.10;81.90
74368;DHT22;64991;41.090;-8.118;2023-11-22T15:20:13;18.10;82.10
74368;DHT22;64991;41.090;-8.118;2023-11-22T15:25:19;18.10;82.20
74368;DHT22;64991;41.090;-8.118;2023-11-22T15:30:22;18.10;82.10
74368;DHT22;64991;41.090;-8.118;2023-11-22T15:35:26;18.10;82.30
74368;DHT22;64991;41.090;-8.118;2023-11-22T15:40:31;18.10;82.30
74368;DHT22;64991;41.090;-8.118;2023-11-22T15:45:34;18.10;82.30
74368;DHT22;64991;41.090;-8.118;2023-11-22T15:50:39;18.00;82.10
74368;DHT22;64991;41.090;-8.118;2023-11-22T15:55:44;18.10;82.10
74368;DHT22;64991;41.090;-8.118;2023-11-22T16:00:47;18.10;82.10
74368;DHT22;64991;41.090;-8.118;2023-11-22T16:05:51;18.10;82.40
74368;DHT22;64991;41.090;-8.118;2023-11-22T16:10:57;18.00;82.50
74368;DHT22;64991;41.090;-8.118;2023-11-22T16:16:00;18.00;82.20
74368;DHT22;64991;41.090;-8.118;2023-11-22T16:21:04;18.10;82.50
74368;DHT22;64991;41.090;-8.118;2023-11-22T16:26:10;18.00;82.40
74368;DHT22;64991;41.090;-8.118;2023-11-22T16:31:14;18.00;82.50
74368;DHT22;64991;41.090;-8.118;2023-11-22T16:36:17;18.00;82.60
74368;DHT22;64991;41.090;-8.118;2023-11-22T16:41:24;18.10;82.50
74368;DHT22;64991;41.090;-8.118;2023-11-22T16:46:28;18.00;82.30
74368;DHT22;64991;41.090;-8.118;2023-11-22T16:51:31;18.00;82.40
74368;DHT22;64991;41.090;-8.118;2023-11-22T16:56:36;18.00;82.40
74368;DHT22;64991;41.090;-8.118;2023-11-22T17:01:39;18.00;82.60
74368;DHT22;64991;41.090;-8.118;2023-11-22T17:06:43;18.00;82.10
74368;DHT22;64991;41.090;-8.118;2023-11-22T17:11:48;18.10;82.30
74368;DHT22;64991;41.090;-8.118;2023-11-22T17:16:51;18.10;82.20
74368;DHT22;64991;41.090;-8.118;2023-11-22T17:21:55;18.00;82.30
74368;DHT22;64991;41.090;-8.118;2023-11-22T17:27:00;18.00;82.50
74368;DHT22;64991;41.090;-8.118;2023-11-22T17:32:04;18.10;82.40
74368;DHT22;64991;41.090;-8.118;2023-11-22T17:37:09;18.00;82.20
74368;DHT22;64991;41.090;-8.118;2023-11-22T17:42:13;18.00;82.10
74368;DHT22;64991;41.090;-8.118;2023-11-22T17:47:17;18.10;82.10
74368;DHT22;64991;41.090;-8.118;2023-11-22T17:52:21;18.00;82.40
74368;DHT22;64991;41.090;-8.118;2023-11-22T17:57:26;18.00;82.30
74368;DHT22;64991;41.090;-8.118;2023-11-22T18:02:29;18.10;82.30
74368;DHT22;64991;41.090;-8.118;2023-11-22T18:07:33;18.10;82.00
74368;DHT22;64991;41.090;-8.118;2023-11-22T18:12:39;18.00;82.30
74368;DHT22;64991;41.090;-8.118;2023-11-22T18:17:42;18.00;82.30
74368;DHT22;64991;41.090;-8.118;2023-11-22T18:22:46;18.00;82.20
74368;DHT22;64991;41.090;-8.118;2023-11-22T18:27:51;18.10;82.10
74368;DHT22;64991;41.090;-8.118;2023-11-22T18:32:54;18.00;82.30
74368;DHT22;64991;41.090;-8.118;2023-11-22T18:37:58;18.00;82.30
74368;DHT22;64991;41.090;-8.118;2023-11-22T18:43:03;18.00;82.00
74368;DHT22;64991;41.090;-8.118;2023-11-22T18:48:07;17.90;82.30
74368;DHT22;64991;41.090;-8.118;2023-11-22T18:53:11;18.00;82.30
74368;DHT22;64991;41.090;-8.118;2023-11-22T18:58:16;18.00;82.20
74368;DHT22;64991;41.090;-8.118;2023-11-22T19:03:20;18.10;82.10
74368;DHT22;64991;41.090;-8.118;2023-11-22T19:08:23;17.90;82.20
74368;DHT22;64991;41.090;-8.118;2023-11-22T19:13:28;18.10;82.30
74368;DHT22;64991;41.090;-8.118;2023-11-22T19:18:35;18.00;82.30
74368;DHT22;64991;41.090;-8.118;2023-11-22T19:23:39;18.10;82.40
74368;DHT22;64991;41.090;-8.118;2023-11-22T19:28:44;18.00;82.30
74368;DHT22;64991;41.090;-8.118;2023-11-22T19:33:47;18.00;82.10
74368;DHT22;64991;41.090;-8.118;2023-11-22T19:38:51;18.00;82.30
74368;DHT22;64991;41.090;-8.118;2023-11-22T19:43:57;18.10;81.90
74368;DHT22;64991;41.090;-8.118;2023-11-22T19:49:01;18.00;82.30
74368;DHT22;64991;41.090;-8.118;2023-11-22T19:54:05;18.00;82.30
74368;DHT22;64991;41.090;-8.118;2023-11-22T19:59:11;18.00;82.10
74368;DHT22;64991;41.090;-8.118;2023-11-22T20:04:15;18.00;81.90
74368;DHT22;64991;41.090;-8.118;2023-11-22T20:09:18;18.00;81.90
74368;DHT22;64991;41.090;-8.118;2023-11-22T20:14:23;18.10;82.00
74368;DHT22;64991;41.090;-8.118;2023-11-22T20:19:27;18.10;82.10
74368;DHT22;64991;41.090;-8.118;2023-11-22T20:24:30;18.10;82.10
74368;DHT22;64991;41.090;-8.118;2023-11-22T20:29:37;18.10;81.90
74368;DHT22;64991;41.090;-8.118;2023-11-22T20:34:40;18.00;82.20
74368;DHT22;64991;41.090;-8.118;2023-11-22T20:39:44;18.00;82.20
74368;DHT22;64991;41.090;-8.118;2023-11-22T20:44:49;18.00;81.90
74368;DHT22;64991;41.090;-8.118;2023-11-22T20:49:53;18.00;81.80
74368;DHT22;64991;41.090;-8.118;2023-11-22T20:54:56;18.00;82.10
74368;DHT22;64991;41.090;-8.118;2023-11-22T21:00:01;18.00;82.00
74368;DHT22;64991;41.090;-8.118;2023-11-22T21:05:05;18.00;81.90
74368;DHT22;64991;41.090;-8.118;2023-11-22T21:10:09;18.00;81.80
74368;DHT22;64991;41.090;-8.118;2023-11-22T21:15:14;18.10;81.80
74368;DHT22;64991;41.090;-8.118;2023-11-22T21:20:18;18.00;81.80
74368;DHT22;64991;41.090;-8.118;2023-11-22T21:25:24;18.00;81.60
74368;DHT22;64991;41.090;-8.118;2023-11-22T21:30:28;18.00;81.90
74368;DHT22;64991;41.090;-8.118;2023-11-22T21:35:32;18.00;81.80
74368;DHT22;64991;41.090;-8.118;2023-11-22T21:40:35;18.00;81.70
74368;DHT22;64991;41.090;-8.118;2023-11-22T21:45:42;18.00;81.60
74368;DHT22;64991;41.090;-8.118;2023-11-22T21:50:45;18.00;81.30
74368;DHT22;64991;41.090;-8.118;2023-11-22T21:55:49;18.00;81.40
74368;DHT22;64991;41.090;-8.118;2023-11-22T22:00:54;18.00;81.30
74368;DHT22;64991;41.090;-8.118;2023-11-22T22:05:57;17.90;81.20
74368;DHT22;64991;41.090;-8.118;2023-11-22T22:11:02;18.00;80.80
74368;DHT22;64991;41.090;-8.118;2023-11-22T22:16:07;17.90;81.10
74368;DHT22;64991;41.090;-8.118;2023-11-22T22:21:11;17.90;80.90
74368;DHT22;64991;41.090;-8.118;2023-11-22T22:26:15;18.00;80.60
74368;DHT22;64991;41.090;-8.118;2023-11-22T22:31:20;17.90;80.60
74368;DHT22;64991;41.090;-8.118;2023-11-22T22:36:23;17.90;80.10
74368;DHT22;64991;41.090;-8.118;2023-11-22T22:41:27;18.00;80.40
74368;DHT22;64991;41.090;-8.118;2023-11-22T22:46:31;17.90;80.40
74368;DHT22;64991;41.090;-8.118;2023-11-22T22:51:35;17.90;80.50
74368;DHT22;64991;41.090;-8.118;2023-11-22T22:56:39;17.90;79.90
74368;DHT22;64991;41.090;-8.118;2023-11-22T23:01:47;17.90;80.00
74368;DHT22;64991;41.090;-8.118;2023-11-22T23:06:50;17.90;79.60
74368;DHT22;64991;41.090;-8.118;2023-11-22T23:11:54;17.90;79.90
74368;DHT22;64991;41.090;-8.118;2023-11-22T23:16:59;17.90;79.90
74368;DHT22;64991;41.090;-8.118;2023-11-22T23:22:03;17.90;79.70
74368;DHT22;64991;41.090;-8.118;2023-11-22T23:27:08;17.90;79.80
74368;DHT22;64991;41.090;-8.118;2023-11-22T23:32:13;17.90;79.50
74368;DHT22;64991;41.090;-8.118;2023-11-22T23:37:16;17.90;79.60
74368;DHT22;64991;41.090;-8.118;2023-11-22T23:42:20;17.90;79.60
74368;DHT22;64991;41.090;-8.118;2023-11-22T23:47:25;17.90;79.40
74368;DHT22;64991;41.090;-8.118;2023-11-22T23:52:28;17.90;79.50
74368;DHT22;64991;41.090;-8.118;2023-11-22T23:57:32;17.90;79.20
